Time;durP1;ratioP1;P1;durP2;ratioP2;P2;SDS_P1;SDS_P2;PMS_P1;PMS_P2;Temp;Humidity;BMP_temperature;BMP_pressure;BME280_temperature;BME280_humidity;BME280_pressure;Samples;Min_cycle;Max_cycle;Signal;HPM_P1;HPM_P2
2022/04/16 00:01:10;;;;;;;;;14.75;14.00;;;;;17.32;47.83;101901.06;4786182;29;46292;-77
2022/04/16 00:03:37;;;;;;;;;16.25;15.50;;;;;17.33;47.81;101910.66;4786282;29;45738;-77
2022/04/16 00:06:04;;;;;;;;;16.75;15.25;;;;;17.31;48.02;101909.13;4770619;29;45808;-76
2022/04/16 00:08:30;;;;;;;;;17.25;17.25;;;;;17.28;48.27;101912.84;4787134;29;47102;-78
2022/04/16 00:10:56;;;;;;;;;18.00;16.00;;;;;17.21;48.49;101903.69;4786653;29;46184;-76
2022/04/16 00:13:24;;;;;;;;;20.00;20.00;;;;;17.11;48.87;101892.97;4786901;29;45847;-77
2022/04/16 00:15:52;;;;;;;;;17.75;14.75;;;;;17.17;48.79;101900.44;4786467;29;45640;-77
2022/04/16 00:21:39;;;;;;;;;17.50;16.25;;;;;17.08;49.14;101900.31;4784613;29;46238;-76
2022/04/16 00:24:05;;;;;;;;;18.50;17.25;;;;;17.08;49.35;101908.25;4769802;29;45713;-77
2022/04/16 00:26:30;;;;;;;;;16.50;13.25;;;;;16.94;49.71;101888.16;4769803;29;45949;-77
2022/04/16 00:28:59;;;;;;;;;16.75;14.75;;;;;16.96;49.97;101895.97;4785817;29;47455;-77
2022/04/16 00:31:26;;;;;;;;;18.00;17.00;;;;;16.92;49.45;101897.16;4785943;29;46203;-77
2022/04/16 00:33:52;;;;;;;;;16.25;14.00;;;;;16.90;49.70;101899.91;4786013;29;45530;-77
2022/04/16 00:36:17;;;;;;;;;18.75;16.00;;;;;16.88;50.11;101901.03;4755099;29;45540;-76
2022/04/16 00:38:43;;;;;;;;;18.25;16.50;;;;;16.87;49.72;101901.97;4754862;29;47737;-77
2022/04/16 00:41:08;;;;;;;;;18.50;14.25;;;;;16.84;50.47;101897.78;4785871;29;47187;-76
2022/04/16 00:43:34;;;;;;;;;20.50;17.75;;;;;16.67;50.39;101874.41;4786369;29;45995;-78
2022/04/16 00:45:59;;;;;;;;;18.25;17.50;;;;;16.74;50.26;101905.56;4786057;29;45780;-77
2022/04/16 00:51:48;;;;;;;;;19.25;16.25;;;;;16.62;50.73;101892.44;4785756;29;45969;-75
2022/04/16 00:54:13;;;;;;;;;18.25;16.75;;;;;16.53;50.78;101895.72;4785956;29;45669;-76
2022/04/16 00:56:39;;;;;;;;;18.00;17.00;;;;;16.56;50.85;101892.84;4785818;29;45868;-77
2022/04/16 00:59:05;;;;;;;;;17.25;17.00;;;;;16.53;50.59;101903.66;4785485;29;46154;-78
2022/04/16 01:01:34;;;;;;;;;17.00;16.75;;;;;16.46;51.17;101900.66;4788264;29;46564;-77
2022/04/16 01:07:23;;;;;;;;;19.50;17.25;;;;;16.41;51.34;101891.38;4788995;29;45635;-76
2022/04/16 01:09:49;;;;;;;;;17.50;16.25;;;;;16.38;51.36;101895.06;4772815;29;47406;-78
2022/04/16 01:12:14;;;;;;;;;18.75;15.00;;;;;16.36;51.32;101896.97;4788937;29;47201;-76
2022/04/16 01:14:40;;;;;;;;;18.75;18.25;;;;;16.32;51.59;101887.59;4789124;29;45613;-76
2022/04/16 01:17:05;;;;;;;;;21.00;18.00;;;;;16.31;51.63;101885.91;4789273;29;45546;-77
2022/04/16 01:19:31;;;;;;;;;16.75;15.75;;;;;16.26;51.64;101885.41;4789355;29;45556;-77
2022/04/16 01:21:57;;;;;;;;;15.75;14.75;;;;;16.26;52.00;101891.53;4791477;29;45589;-77
2022/04/16 01:24:22;;;;;;;;;18.75;16.50;;;;;16.24;51.77;101892.63;4789626;29;45873;-77
2022/04/16 01:26:50;;;;;;;;;16.00;14.25;;;;;16.21;52.45;101887.53;4789479;29;45686;-77
2022/04/16 01:29:16;;;;;;;;;16.25;15.25;;;;;16.17;52.17;101888.75;4788887;29;46742;-77
2022/04/16 01:31:41;;;;;;;;;20.75;19.00;;;;;16.14;52.01;101892.44;4788974;29;45982;-77
2022/04/16 01:37:33;;;;;;;;;21.00;18.50;;;;;16.10;52.09;101885.69;4788465;29;45485;-77
2022/04/16 01:40:00;;;;;;;;;17.50;15.00;;;;;16.08;52.06;101889.44;4788545;29;47016;-77
2022/04/16 01:42:26;;;;;;;;;22.25;15.00;;;;;16.08;52.44;101886.78;4788235;29;46152;-77
2022/04/16 01:44:52;;;;;;;;;12.75;11.75;;;;;16.04;52.52;101888.78;4788484;29;45661;-76
2022/04/16 01:47:18;;;;;;;;;16.75;15.50;;;;;16.01;52.50;101889.03;4788315;29;45456;-76
2022/04/16 01:49:43;;;;;;;;;19.00;17.00;;;;;16.01;52.76;101896.13;4788250;29;46480;-77
2022/04/16 01:52:09;;;;;;;;;21.00;16.25;;;;;15.95;52.79;101890.31;4788526;29;45670;-78
2022/04/16 01:54:35;;;;;;;;;16.25;15.50;;;;;15.90;52.77;101888.97;4788373;29;45816;-77
2022/04/16 01:57:01;;;;;;;;;16.50;16.25;;;;;15.91;52.81;101896.78;4788566;29;45606;-74
2022/04/16 01:59:28;;;;;;;;;24.50;21.50;;;;;15.89;52.92;101897.84;4788253;29;46010;-77
2022/04/16 02:01:56;;;;;;;;;21.50;20.00;;;;;15.81;53.48;101900.22;4788382;29;46043;-78
2022/04/16 02:07:43;;;;;;;;;21.50;20.50;;;;;15.73;53.61;101895.47;4788098;29;45634;-76
2022/04/16 02:10:08;;;;;;;;;22.25;19.00;;;;;15.73;53.59;101898.13;4788301;29;45928;-79
2022/04/16 02:12:38;;;;;;;;;20.25;18.00;;;;;15.70;53.90;101902.78;4787023;29;47229;-78
2022/04/16 02:15:05;;;;;;;;;22.75;19.25;;;;;15.66;54.06;101890.72;4788134;29;45790;-78
2022/04/16 02:17:33;;;;;;;;;25.50;23.25;;;;;15.59;54.22;101889.50;4788298;29;45558;-78
2022/04/16 02:19:58;;;;;;;;;22.25;18.25;;;;;15.60;54.00;101896.47;4788047;29;45661;-77
2022/04/16 02:22:24;;;;;;;;;22.00;21.25;;;;;15.55;54.06;101888.84;4787691;29;45658;-76
2022/04/16 02:24:49;;;;;;;;;24.00;22.00;;;;;15.57;53.82;101901.97;4787796;29;45555;-77
2022/04/16 02:27:15;;;;;;;;;21.00;19.00;;;;;15.55;54.53;101901.25;4787940;29;45515;-78
2022/04/16 02:29:41;;;;;;;;;21.00;19.75;;;;;15.46;54.16;101884.19;4787930;29;46723;-76
2022/04/16 02:32:06;;;;;;;;;24.75;22.25;;;;;15.48;54.65;101898.16;4788181;29;45830;-78
2022/04/16 02:37:53;;;;;;;;;21.50;20.25;;;;;15.34;54.71;101904.41;4787694;29;45640;-77
2022/04/16 02:40:18;;;;;;;;;25.50;22.50;;;;;15.19;55.03;101887.00;4787782;29;46367;-77
2022/04/16 02:42:45;;;;;;;;;25.00;21.25;;;;;15.22;54.90;101907.06;4787546;29;45501;-79
2022/04/16 02:47:58;;;;;;;;;21.00;18.50;;;;;15.00;55.76;101879.53;4787574;29;45652;-78
2022/04/16 02:50:25;;;;;;;;;23.25;21.00;;;;;15.01;55.41;101894.38;4787315;29;47440;-76
2022/04/16 02:52:54;;;;;;;;;26.75;23.75;;;;;15.08;55.25;101906.22;4787399;29;46622;-77
2022/04/16 02:55:20;;;;;;;;;25.00;23.00;;;;;15.03;55.76;101908.34;4787053;29;45542;-78
2022/04/16 02:57:46;;;;;;;;;23.50;21.75;;;;;15.03;55.71;101904.84;4787703;29;45533;-78
2022/04/16 03:00:13;;;;;;;;;23.75;22.25;;;;;15.00;55.89;101902.44;4787419;29;46352;-79
2022/04/16 03:02:39;;;;;;;;;21.25;19.00;;;;;14.98;55.63;101896.41;4787488;29;46153;-77
2022/04/16 03:05:06;;;;;;;;;30.50;23.25;;;;;14.96;55.82;101901.78;4787339;29;45647;-78
2022/04/16 03:07:33;;;;;;;;;27.25;20.75;;;;;14.88;55.88;101890.91;4787341;29;45898;-77
2022/04/16 03:09:58;;;;;;;;;24.00;22.75;;;;;14.85;55.94;101891.09;4787282;29;45544;-75
2022/04/16 03:12:24;;;;;;;;;29.50;25.75;;;;;14.87;55.71;101899.78;4787379;29;45687;-77
2022/04/16 03:17:54;;;;;;;;;21.25;20.75;;;;;14.81;56.45;101902.84;4749654;29;45838;-77
2022/04/16 03:20:20;;;;;;;;;25.00;21.25;;;;;14.78;56.12;101897.78;4749019;29;46397;-77
2022/04/16 03:22:45;;;;;;;;;23.75;21.75;;;;;14.70;56.33;101889.53;4758135;29;46412;-76
2022/04/16 03:25:11;;;;;;;;;27.75;23.50;;;;;14.72;56.34;101894.69;4769054;29;45546;-76
2022/04/16 03:27:37;;;;;;;;;25.25;24.00;;;;;14.59;56.75;101881.50;4769196;29;45546;-76
2022/04/16 03:30:07;;;;;;;;;27.25;22.50;;;;;14.58;56.60;101896.47;4769129;29;45587;-77
2022/04/16 03:32:37;;;;;;;;;24.00;22.50;;;;;14.39;56.58;101858.25;4769235;29;46237;-78
2022/04/16 03:38:24;;;;;;;;;27.75;22.75;;;;;14.26;56.94;101859.03;4769066;29;45485;-77
2022/04/16 03:40:50;;;;;;;;;27.00;22.50;;;;;14.40;56.96;101881.91;4768657;29;46093;-77
2022/04/16 03:43:25;;;;;;;;;25.00;22.00;;;;;14.24;56.42;101876.75;4768944;29;45891;-77
2022/04/16 03:45:53;;;;;;;;;32.50;25.25;;;;;14.41;56.95;101891.50;4752335;29;45591;-77
2022/04/16 03:48:18;;;;;;;;;27.50;23.25;;;;;13.91;56.93;101828.91;4767271;29;45781;-76
2022/04/16 03:50:44;;;;;;;;;26.25;24.00;;;;;13.86;57.49;101818.66;4768374;29;46461;-77
2022/04/16 03:53:12;;;;;;;;;30.00;23.75;;;;;14.29;57.32;101894.91;4768760;29;45706;-77
2022/04/16 04:01:06;;;;;;;;;32.25;27.50;;;;;14.20;57.03;101882.31;4768356;29;45615;-78
2022/04/16 04:03:31;;;;;;;;;26.75;23.25;;;;;14.23;57.52;101885.63;4768622;29;46156;-78
2022/04/16 04:05:58;;;;;;;;;25.25;22.50;;;;;14.17;57.72;101883.38;4768666;29;45572;-77
2022/04/16 04:08:28;;;;;;;;;25.25;24.25;;;;;14.17;57.11;101883.38;4768757;29;45797;-77
2022/04/16 04:10:54;;;;;;;;;28.00;24.50;;;;;14.07;57.24;101874.38;4768523;29;46545;-77
2022/04/16 04:13:20;;;;;;;;;25.00;21.50;;;;;14.11;57.42;101881.13;4768334;29;46030;-78
2022/04/16 04:15:45;;;;;;;;;27.50;23.25;;;;;14.09;58.00;101888.28;4768073;29;45757;-76
2022/04/16 04:18:11;;;;;;;;;25.75;22.50;;;;;14.05;57.47;101884.16;4768488;29;45709;-77
2022/04/16 04:20:37;;;;;;;;;27.50;24.50;;;;;14.06;57.72;101896.41;4770466;29;46247;-77
2022/04/16 04:23:03;;;;;;;;;25.25;22.25;;;;;14.06;57.15;101904.31;4786254;29;45648;-76
2022/04/16 04:25:29;;;;;;;;;24.75;21.25;;;;;14.05;57.55;101896.50;4786178;29;45501;-77
2022/04/16 04:27:54;;;;;;;;;28.00;21.25;;;;;13.98;57.02;101885.50;4786458;29;45597;-77
2022/04/16 04:30:20;;;;;;;;;25.75;21.00;;;;;13.98;57.72;101885.50;4786393;29;46273;-77
2022/04/16 04:32:46;;;;;;;;;28.25;24.50;;;;;14.05;57.43;101905.25;4786077;29;45901;-76
2022/04/16 04:38:32;;;;;;;;;28.00;22.75;;;;;13.96;57.29;101895.31;4789604;29;45617;-74
2022/04/16 04:41:00;;;;;;;;;28.50;26.75;;;;;14.03;57.38;101911.59;4788993;29;46578;-74
2022/04/16 04:43:26;;;;;;;;;23.25;22.25;;;;;14.02;57.76;101907.25;4789453;29;46027;-76
2022/04/16 04:45:54;;;;;;;;;32.00;25.00;;;;;13.94;57.33;101891.94;4789716;29;45641;-78
